Latest Weather Observations for Kowen Forest

IDN60801

Issued at 2:42 am EST Thursday 20 June 2024 (issued every 10 minutes, with the page automatically refreshed every 10 minutes)

About weather observations | Map of weather stations | Latest weather observations for NSW | Other Formats
Station Details ID: 250071 Name: KOWEN FOREST (PCS) Lat: -35.31 Lon: 149.32 Height: 720.0 m

Portable automatic weather stations (PAWS) are operated by other organisations, such as Fire and Emergency Services, and are included here by agreement. Portable stations may be deployed to a location for a short period and their location may be subject to change without notice. Wind observations from these stations are provided from heights of either three (3) or ten (10) metres above ground level (AGL).

Data from the previous 72 hours. | See also: Recent months for locations in New South Wales
Date/Time
EST
Temp
°C
App
Temp
°C
Dew
Point
°C
Rel
Hum
%
Delta-T
°C
Wind Press
QNH
hPa
Press
MSL
hPa
Rain since
9am
mm
Dir  Spd
km/h
Gust
km/h
Spd
kts
Gust
kts
20/02:10am -3.6 -7.3 -4.3 95 0.1 NE 6 6 3 3 1017.0 - 0.0
20/02:00am -4.1 -7.1 -4.9 94 0.1 NNE 2 4 1 2 1017.0 - 0.0
20/01:50am -4.5 -7.5 -5.4 93 0.1 NE 2 2 1 1 1017.2 - 0.0
20/01:40am -4.2 -6.8 -5.0 94 0.1 CALM 0 0 0 0 1017.2 - 0.0
20/01:30am -4.7 -7.4 -5.6 93 0.1 CALM 0 2 0 1 1017.2 - 0.0
20/01:20am -4.4 -7.0 -5.3 93 0.1 CALM 0 0 0 0 1017.3 - 0.0
20/01:00am -4.6 -7.3 -5.5 93 0.1 CALM 0 2 0 1 1017.3 - 0.0
20/12:50am -4.4 -7.0 -5.2 94 0.1 CALM 0 2 0 1 1017.4 - 0.0
20/12:40am -4.5 -7.1 -5.4 93 0.1 CALM 0 2 0 1 1017.5 - 0.0
20/12:30am -3.6 -6.1 -4.3 95 0.1 CALM 0 0 0 0 1017.5 - 0.0
20/12:20am -3.9 -6.8 -4.6 95 0.1 ENE 2 2 1 1 1017.6 - 0.0
20/12:10am -4.2 -7.2 -5.0 94 0.1 NNE 2 4 1 2 1017.7 - 0.0
20/12:00am -4.0 -6.6 -4.8 94 0.1 CALM 0 2 0 1 1017.8 - 0.0
 
Date/Time
EST
Temp
°C
App
Temp
°C
Dew
Point
°C
Rel
Hum
%
Delta-T
°C
Wind Press
QNH
hPa
Press
MSL
hPa
Rain since
9am
mm
Dir  Spd
km/h
Gust
km/h
Spd
kts
Gust
kts
19/11:50pm -3.9 -6.5 -4.7 94 0.1 CALM 0 2 0 1 1017.8 - 0.0
19/11:40pm -3.5 -6.0 -4.3 94 0.1 CALM 0 0 0 0 1017.8 - 0.0
19/11:30pm -3.4 -6.7 -4.1 95 0.1 ENE 4 4 2 2 1017.8 - 0.0
19/11:20pm -4.4 -7.8 -5.3 93 0.1 NE 4 4 2 2 1017.8 - 0.0
19/11:10pm -3.3 -6.5 -3.9 96 0.1 NE 4 6 2 3 1017.7 - 0.0
19/11:00pm -4.0 -7.3 -4.8 94 0.1 NE 4 4 2 2 1017.6 - 0.0
19/10:50pm -3.2 -6.4 -3.8 96 0.1 ENE 4 4 2 2 1017.7 - 0.0
19/10:40pm -3.2 -6.4 -3.8 96 0.1 ENE 4 6 2 3 1017.7 - 0.0
19/10:30pm -4.0 -7.3 -4.8 94 0.1 NE 4 7 2 4 1017.6 - 0.0
19/10:20pm -3.1 -5.6 -3.7 96 0.1 CALM 0 0 0 0 1017.6 - 0.0
19/10:10pm -3.3 -5.8 -4.0 95 0.1 CALM 0 2 0 1 1017.5 - 0.0
19/10:00pm -3.3 -6.2 -3.9 96 0.1 NNE 2 4 1 2 1017.4 - 0.0
19/09:50pm -3.0 -5.5 -3.7 95 0.1 CALM 0 4 0 2 1017.5 - 0.0
19/09:40pm -3.1 -5.6 -3.7 96 0.1 CALM 0 2 0 1 1017.5 - 0.0
19/09:30pm -3.0 -5.5 -3.7 95 0.1 CALM 0 2 0 1 1017.5 - 0.0
19/09:20pm -3.0 -5.5 -3.7 95 0.1 CALM 0 4 0 2 1017.5 - 0.0
19/09:10pm -3.4 -7.1 -4.1 95 0.1 NE 6 6 3 3 1017.5 - 0.0
19/09:00pm -3.2 -6.8 -3.9 95 0.1 NNE 6 6 3 3 1017.5 - 0.0
19/08:50pm -3.2 -6.1 -3.9 95 0.1 ENE 2 4 1 2 1017.5 - 0.0
19/08:40pm -3.1 -6.3 -3.8 95 0.1 NE 4 4 2 2 1017.6 - 0.0
19/08:30pm -3.2 -6.1 -3.9 95 0.1 NE 2 2 1 1 1017.5 - 0.0
19/08:20pm -3.5 -6.4 -4.3 94 0.1 ENE 2 4 1 2 1017.5 - 0.0
19/08:10pm -2.7 -5.5 -3.4 95 0.1 ENE 2 4 1 2 1017.5 - 0.0
19/07:50pm -2.6 -5.4 -3.4 94 0.2 ENE 2 4 1 2 1017.4 - 0.0
19/07:30pm -2.3 -5.4 -2.9 96 0.1 NE 4 6 2 3 1017.1 - 0.0
19/07:20pm -2.1 -4.8 -2.8 95 0.1 NE 2 7 1 4 1017.0 - 0.0
19/07:10pm -2.1 -4.8 -2.8 95 0.1 ENE 2 2 1 1 1016.7 - 0.0
19/07:00pm -2.1 -4.5 -2.9 94 0.2 CALM 0 2 0 1 1016.6 - 0.0
19/06:50pm -1.5 -3.8 -2.1 96 0.1 CALM 0 2 0 1 1016.4 - 0.0
19/06:40pm -2.1 -5.2 -3.0 94 0.2 NNE 4 6 2 3 1016.3 - 0.0
19/06:30pm -1.0 -3.7 -2.1 92 0.3 E 2 4 1 2 1016.3 - 0.0
19/06:20pm -0.3 -2.4 -1.1 94 0.3 CALM 0 2 0 1 1016.3 - 0.0
19/06:10pm -0.1 -3.0 -0.8 95 0.3 NE 4 4 2 2 1016.3 - 0.0
19/05:50pm 0.7 -2.2 -0.8 90 0.6 NE 4 6 2 3 1016.2 - 0.0
19/05:40pm 1.4 -1.3 0.4 93 0.4 ENE 4 4 2 2 1016.1 - 0.0
19/05:30pm 1.6 -1.0 0.7 94 0.4 ENE 4 4 2 2 1016.1 - 0.0
19/05:20pm 1.5 -1.2 0.3 92 0.5 NE 4 6 2 3 1016.2 - 0.0
19/05:10pm 2.5 -0.2 0.6 87 0.7 NE 4 6 2 3 1016.0 - 0.0
19/05:00pm 4.0 1.9 1.5 84 1.0 NE 2 2 1 1 1015.9 - 0.0
19/04:50pm 5.5 3.5 2.1 79 1.4 NW 2 4 1 2 1015.9 - 0.0
19/04:40pm 6.5 3.7 2.0 73 1.9 WNW 6 7 3 4 1016.0 - 0.0
19/04:30pm 6.6 3.6 1.9 72 2.0 WNW 7 9 4 5 1016.0 - 0.0
19/04:20pm 6.7 3.0 2.1 72 2.0 WNW 11 11 6 6 1016.0 - 0.0
19/04:10pm 7.2 3.4 2.0 69 2.2 W 11 13 6 7 1016.0 - 0.0
19/04:00pm 7.2 3.4 1.9 69 2.3 WNW 11 17 6 9 1016.1 - 0.0
19/03:50pm 7.4 4.0 1.9 68 2.4 WNW 9 11 5 6 1016.1 - 0.0
19/03:40pm 6.7 3.0 2.1 72 2.0 WNW 11 13 6 7 1015.8 - 0.0
19/03:30pm 7.3 3.5 1.8 68 2.3 NW 11 11 6 6 1015.7 - 0.0
19/03:20pm 7.4 4.0 1.7 67 2.4 WNW 9 13 5 7 1015.5 - 0.0
19/03:10pm 7.6 4.1 1.5 65 2.6 WNW 9 13 5 7 1015.5 - 0.0
19/03:00pm 7.7 4.2 1.5 65 2.6 NNW 9 11 5 6 1015.3 - 0.0
19/02:50pm 7.8 4.9 1.6 65 2.6 NNW 6 9 3 5 1015.3 - 0.0
19/02:40pm 7.6 4.7 1.3 64 2.7 N 6 9 3 5 1015.3 - 0.0
19/02:30pm 7.2 4.0 0.7 63 2.7 NNW 7 9 4 5 1015.2 - 0.0
19/02:20pm 7.0 4.0 0.5 63 2.7 NW 6 9 3 5 1015.2 - 0.0
19/02:10pm 6.9 3.9 0.7 64 2.6 NW 6 11 3 6 1015.3 - 0.0
19/02:00pm 6.6 3.6 0.9 67 2.4 NNW 6 7 3 4 1015.4 - 0.0
19/01:50pm 6.2 3.1 1.1 70 2.1 NNW 7 11 4 6 1015.3 - 0.0
19/01:40pm 5.8 2.3 1.0 71 2.0 NNW 9 13 5 7 1015.5 - 0.0
19/01:30pm 5.8 1.5 0.9 71 2.0 NNW 13 19 7 10 1015.7 - 0.0
19/01:20pm 6.3 1.3 1.3 70 2.1 NW 17 20 9 11 1016.0 - 0.0
19/01:10pm 6.5 1.7 0.4 65 2.5 WNW 15 17 8 9 1016.2 - 0.0
19/01:00pm 6.7 1.9 0.3 63 2.6 W 15 17 8 9 1016.1 - 0.0
19/12:50pm 6.8 2.3 0.0 62 2.8 W 13 17 7 9 1016.3 - 0.0
19/12:40pm 6.9 2.8 -0.4 59 2.9 W 11 13 6 7 1016.2 - 0.0
19/12:30pm 6.5 2.9 0.4 65 2.5 WSW 9 13 5 7 1016.2 - 0.0
19/12:20pm 6.8 2.8 0.2 63 2.7 W 11 13 6 7 1016.3 - 0.0
19/12:10pm 6.6 2.5 0.0 63 2.7 W 11 15 6 8 1016.6 - 0.0
19/12:00pm 6.9 3.5 -0.3 60 2.9 WNW 7 11 4 6 1016.6 - 0.0
19/11:40am 6.4 3.0 -0.6 61 2.8 W 7 11 4 6 1016.8 - 0.0
19/11:30am 6.0 2.3 -0.2 64 2.5 SW 9 11 5 6 1017.0 - 0.0
19/11:20am 6.2 2.6 0.7 68 2.3 SSW 9 13 5 7 1017.2 - 0.0
19/11:10am 6.1 3.0 1.3 71 2.0 SSW 7 9 4 5 1017.4 - 0.0
19/11:00am 5.7 2.7 0.6 70 2.1 S 6 7 3 4 1017.5 - 0.0
19/10:50am 5.7 2.7 0.6 70 2.1 SSW 6 7 3 4 1017.6 - 0.0
19/10:40am 5.7 3.0 0.3 68 2.2 SSW 4 6 2 3 1017.7 - 0.0
19/10:30am 5.6 3.3 0.7 71 2.0 SW 2 4 1 2 1017.8 - 0.0
19/10:20am 5.1 3.3 1.2 76 1.6 CALM 0 4 0 2 1017.9 - 0.0
19/10:10am 3.8 1.7 1.6 85 0.9 WNW 2 4 1 2 1017.8 - 0.0
19/10:00am 3.4 0.9 1.4 87 0.8 NNW 4 6 2 3 1017.9 - 0.0
19/09:50am 3.0 1.3 1.7 91 0.5 CALM 0 2 0 1 1017.7 - 0.0
19/09:40am 2.5 0.7 1.3 92 0.5 CALM 0 2 0 1 1017.8 - 0.0
19/09:30am 1.7 -0.2 0.7 93 0.4 CALM 0 0 0 0 1017.9 - 0.0
19/09:20am 0.9 -1.1 -0.2 92 0.4 CALM 0 0 0 0 1017.9 - 0.0
19/09:10am 0.0 -2.1 -1.1 92 0.4 CALM 0 0 0 0 1018.0 - 0.0
19/09:00am -0.8 -3.0 -1.8 93 0.3 CALM 0 0 0 0 1018.0 - 0.2
19/08:50am -1.8 -4.2 -3.1 91 0.4 CALM 0 0 0 0 1018.0 - 0.0
19/08:40am -2.3 -5.1 -3.5 91 0.3 SSW 2 4 1 2 1018.0 - 0.0
19/08:30am -2.2 -4.6 -3.3 92 0.3 CALM 0 2 0 1 1018.1 - 0.0
19/08:20am -2.5 -4.9 -3.4 93 0.2 CALM 0 0 0 0 1018.0 - 0.0
19/08:10am -3.4 -6.3 -4.3 93 0.1 ENE 2 4 1 2 1017.8 - 0.0
19/08:00am -4.4 -7.4 -5.3 93 0.1 ENE 2 4 1 2 1017.7 - 0.0
19/07:50am -4.9 -7.6 -5.8 93 0.1 CALM 0 0 0 0 1017.7 - 0.0
19/07:40am -4.6 -7.3 -5.5 93 0.1 CALM 0 2 0 1 1017.7 - 0.0
19/07:30am -4.2 -6.8 -4.9 95 0.0 CALM 0 2 0 1 1017.5 - 0.0
19/07:20am -5.4 -8.1 -6.3 93 0.1 CALM 0 4 0 2 1017.4 - 0.0
19/07:10am -5.7 -8.5 -6.9 91 0.1 CALM 0 4 0 2 1017.3 - 0.0
19/07:00am -5.1 -7.8 -6.2 92 0.1 CALM 0 0 0 0 1017.2 - 0.0
19/06:40am -4.3 -7.7 -5.0 95 0.0 ENE 4 6 2 3 1017.1 - 0.0
19/06:30am -5.3 -8.8 -6.2 93 0.1 NE 4 4 2 2 1017.0 - 0.0
19/06:20am -5.7 -9.3 -6.9 91 0.1 NNE 4 6 2 3 1017.0 - 0.0
19/06:10am -4.9 -7.6 -5.9 93 0.1 CALM 0 4 0 2 1016.9 - 0.0
19/06:00am -4.6 -7.2 -5.4 94 0.1 CALM 0 2 0 1 1016.7 - 0.0
19/05:50am -4.8 -7.5 -5.7 93 0.1 CALM 0 0 0 0 1016.6 - 0.0
19/05:40am -4.8 -7.5 -5.6 94 0.1 CALM 0 0 0 0 1016.5 - 0.0
19/05:30am -5.4 -8.2 -6.5 92 0.1 CALM 0 0 0 0 1016.3 - 0.0
19/05:20am -4.5 -7.1 -5.4 93 0.1 CALM 0 2 0 1 1016.2 - 0.0
19/05:10am -3.9 -7.2 -4.6 95 0.1 ENE 4 4 2 2 1016.1 - 0.0
19/05:00am -4.4 -8.2 -5.4 93 0.1 NE 6 6 3 3 1016.1 - 0.0
19/04:50am -3.1 -6.7 -3.7 96 0.1 NE 6 6 3 3 1016.1 - 0.0
19/04:40am -3.6 -7.3 -4.3 95 0.1 ENE 6 6 3 3 1016.1 - 0.0
19/04:30am -4.7 -8.5 -5.7 93 0.1 NE 6 6 3 3 1016.2 - 0.0
19/04:20am -4.3 -8.1 -5.1 94 0.1 NNE 6 6 3 3 1016.2 - 0.0
19/04:10am -4.8 -7.9 -5.7 93 0.1 ENE 2 6 1 3 1016.4 - 0.0
19/04:00am -4.9 -8.4 -5.9 93 0.1 NE 4 6 2 3 1016.4 - 0.0
19/03:50am -4.2 -7.2 -5.1 93 0.1 ENE 2 4 1 2 1016.5 - 0.0
19/03:40am -4.3 -8.1 -5.2 93 0.1 NE 6 6 3 3 1016.7 - 0.0
19/03:30am -3.9 -7.2 -4.7 94 0.1 NE 4 6 2 3 1016.9 - 0.0
19/03:20am -3.3 -5.8 -3.9 96 0.1 CALM 0 2 0 1 1016.9 - 0.0
19/03:10am -4.1 -7.5 -4.9 94 0.1 ENE 4 6 2 3 1017.0 - 0.0
19/03:00am -4.2 -7.6 -5.1 93 0.1 NE 4 6 2 3 1017.1 - 0.0
19/02:50am -3.1 -5.6 -3.9 94 0.1 CALM 0 2 0 1 1017.2 - 0.0
19/02:40am -2.8 -5.6 -3.5 95 0.1 E 2 4 1 2 1017.2 - 0.0
19/02:30am -2.6 -6.1 -3.1 96 0.1 NE 6 6 3 3 1017.3 - 0.0
19/02:20am -3.3 -6.9 -3.9 96 0.1 ENE 6 6 3 3 1017.2 - 0.0
19/02:10am -2.7 -5.9 -3.4 95 0.1 NE 4 4 2 2 1017.3 - 0.0
19/02:00am -2.3 -5.4 -2.8 96 0.1 ENE 4 6 2 3 1017.2 - 0.0
19/01:50am -2.7 -5.9 -3.3 96 0.1 NE 4 6 2 3 1017.2 - 0.0
19/01:40am -2.6 -6.1 -3.1 96 0.1 NE 6 6 3 3 1017.1 - 0.0
19/01:30am -3.5 -7.2 -4.2 95 0.1 NE 6 7 3 4 1017.1 - 0.0
19/01:20am -3.0 -6.2 -3.6 96 0.1 NE 4 6 2 3 1017.0 - 0.0
19/01:10am -2.9 -6.5 -3.5 96 0.1 ENE 6 6 3 3 1017.0 - 0.0
19/01:00am -3.1 -6.3 -3.8 95 0.1 NE 4 6 2 3 1017.0 - 0.0
19/12:50am -2.9 -5.7 -3.5 96 0.1 ENE 2 4 1 2 1017.0 - 0.0
19/12:40am -3.0 -5.8 -3.6 96 0.1 ENE 2 4 1 2 1017.2 - 0.0
19/12:30am -2.4 -5.2 -3.0 96 0.1 ENE 2 6 1 3 1017.3 - 0.0
19/12:20am -2.7 -6.3 -3.3 96 0.1 ENE 6 7 3 4 1017.2 - 0.0
19/12:10am -2.6 -5.8 -3.2 96 0.1 ENE 4 6 2 3 1017.2 - 0.0
19/12:00am -2.6 -5.8 -3.2 96 0.1 NE 4 6 2 3 1017.2 - 0.0
 
Date/Time
EST
Temp
°C
App
Temp
°C
Dew
Point
°C
Rel
Hum
%
Delta-T
°C
Wind Press
QNH
hPa
Press
MSL
hPa
Rain since
9am
mm
Dir  Spd
km/h
Gust
km/h
Spd
kts
Gust
kts
18/11:50pm -2.6 -5.8 -3.2 96 0.1 NE 4 4 2 2 1017.2 - 0.0
18/11:40pm -2.2 -5.3 -2.8 96 0.1 NE 4 6 2 3 1017.4 - 0.0
18/11:30pm -2.4 -5.9 -3.0 96 0.1 NE 6 7 3 4 1017.5 - 0.0
18/11:20pm -2.1 -5.6 -2.7 96 0.1 NE 6 6 3 3 1017.5 - 0.0
18/11:10pm -1.7 -5.1 -2.2 96 0.1 ENE 6 6 3 3 1017.6 - 0.0
18/11:00pm -2.0 -5.5 -2.5 96 0.1 ENE 6 6 3 3 1017.6 - 0.0
18/10:50pm -2.1 -5.6 -2.7 96 0.1 NE 6 6 3 3 1017.7 - 0.0
18/10:40pm -2.3 -5.8 -2.8 96 0.1 ENE 6 6 3 3 1017.8 - 0.0
18/10:30pm -2.3 -5.4 -2.9 96 0.1 NE 4 4 2 2 1017.8 - 0.0
18/10:20pm -1.4 -4.4 -1.9 96 0.1 NE 4 6 2 3 1017.7 - 0.0
18/10:10pm -1.7 -5.1 -2.2 96 0.1 NE 6 6 3 3 1017.7 - 0.0
18/10:00pm -2.5 -5.7 -3.1 96 0.1 NE 4 6 2 3 1017.6 - 0.0
18/09:50pm -2.5 -6.0 -3.1 96 0.1 NE 6 7 3 4 1017.6 - 0.0
18/09:40pm -2.5 -6.0 -3.2 95 0.1 NE 6 6 3 3 1017.6 - 0.0
18/09:30pm -2.2 -5.9 -2.8 96 0.1 NE 7 9 4 5 1017.5 - 0.0
18/09:20pm -2.1 -5.6 -2.9 94 0.2 NE 6 7 3 4 1017.5 - 0.0
18/09:10pm -1.4 -4.4 -2.0 96 0.1 NE 4 6 2 3 1017.5 - 0.0
18/09:00pm -1.5 -4.9 -2.1 96 0.1 ENE 6 6 3 3 1017.5 - 0.0
18/08:50pm -1.7 -5.1 -2.4 95 0.2 NE 6 6 3 3 1017.5 - 0.0
18/08:40pm -1.1 -4.5 -1.8 95 0.2 NE 6 7 3 4 1017.4 - 0.0
18/08:30pm -0.4 -3.7 -1.0 96 0.2 NE 6 7 3 4 1017.3 - 0.0
18/08:20pm -0.7 -3.7 -1.5 94 0.3 NE 4 6 2 3 1017.2 - 0.0
18/08:10pm -0.3 -3.3 -1.5 92 0.4 NNE 4 6 2 3 1017.2 - 0.0
18/08:00pm 0.8 -1.2 -0.3 92 0.4 CALM 0 2 0 1 1017.2 - 0.0
18/07:50pm 1.4 -1.3 0.6 94 0.3 ESE 4 7 2 4 1017.2 - 0.0
18/07:40pm 1.1 -2.6 0.2 94 0.3 NE 9 9 5 5 1017.0 - 0.0
18/07:30pm 1.4 -1.8 0.7 95 0.3 NE 7 7 4 4 1016.9 - 0.0
18/07:20pm 0.8 -2.9 -0.3 92 0.4 NE 9 9 5 5 1016.9 - 0.0
18/07:10pm 1.3 -1.4 0.2 92 0.4 NE 4 7 2 4 1016.9 - 0.0
18/07:00pm 2.1 -0.2 0.5 89 0.6 ENE 2 4 1 2 1016.8 - 0.0
18/06:50pm 2.7 0.5 0.8 87 0.8 WSW 2 4 1 2 1016.7 - 0.0
18/06:40pm 3.1 0.2 1.3 88 0.7 SSE 6 7 3 4 1016.4 - 0.0
18/06:30pm 3.1 0.2 1.4 89 0.7 SE 6 7 3 4 1016.3 - 0.0
18/06:20pm 4.5 1.4 1.4 80 1.3 NNW 7 11 4 6 1016.2 - 0.0
18/06:10pm 4.5 1.0 1.5 81 1.2 NNW 9 11 5 6 1016.1 - 0.0
18/06:00pm 4.2 0.7 1.5 82 1.1 NNW 9 9 5 5 1016.0 - 0.0
18/05:50pm 3.7 0.8 1.5 85 0.9 N 6 7 3 4 1015.9 - 0.0
18/05:40pm 4.1 1.2 1.6 84 1.0 NNE 6 7 3 4 1015.8 - 0.0
18/05:30pm 4.5 1.5 1.9 83 1.1 NE 7 7 4 4 1015.7 - 0.0
18/05:10pm 5.5 2.8 2.5 81 1.3 NE 6 7 3 4 1015.7 - 0.0
18/05:00pm 6.3 3.5 2.0 74 1.8 NNW 6 7 3 4 1015.7 - 0.0
18/04:50pm 7.3 4.3 2.2 70 2.2 NW 7 9 4 5 1015.6 - 0.0
18/04:40pm 8.6 5.3 2.2 64 2.8 NW 9 11 5 6 1015.5 - 0.0
18/04:30pm 9.2 6.3 2.6 63 2.9 NW 7 7 4 4 1015.5 - 0.0
18/04:20pm 9.3 5.6 2.4 62 3.0 NW 11 15 6 8 1015.5 - 0.0
18/04:10pm 9.6 5.9 2.4 61 3.2 WNW 11 13 6 7 1015.5 - 0.0
18/04:00pm 9.7 5.6 2.2 59 3.3 WNW 13 15 7 8 1015.5 - 0.0
18/03:50pm 10.0 5.5 2.2 58 3.4 WNW 15 19 8 10 1015.6 - 0.0
18/03:40pm 10.2 6.1 2.5 59 3.4 WNW 13 15 7 8 1015.6 - 0.0
18/03:30pm 10.5 6.5 2.9 59 3.4 NW 13 15 7 8 1015.6 - 0.0
18/03:20pm 9.8 5.8 2.8 61 3.1 WNW 13 19 7 10 1015.6 - 0.0
18/03:10pm 9.9 5.5 2.9 62 3.1 NW 15 19 8 10 1015.6 - 0.0
18/03:00pm 10.8 6.8 2.8 57 3.6 NW 13 17 7 9 1015.5 - 0.0
18/02:50pm 10.8 7.1 2.1 55 3.9 WNW 11 17 6 9 1015.5 - 0.0
18/02:40pm 10.6 6.5 2.2 56 3.7 WNW 13 19 7 10 1015.5 - 0.0
18/02:30pm 10.8 7.1 2.1 55 3.9 NW 11 15 6 8 1015.4 - 0.0
18/02:20pm 10.6 6.9 2.1 55 3.8 WNW 11 15 6 8 1015.4 - 0.0
18/02:10pm 10.6 6.8 1.6 53 3.9 WNW 11 15 6 8 1015.4 - 0.0
18/02:00pm 10.2 6.4 2.0 57 3.6 W 11 13 6 7 1015.5 - 0.0
18/01:50pm 10.8 6.7 2.1 55 3.9 WSW 13 19 7 10 1015.6 - 0.0
18/01:40pm 10.5 5.6 2.0 55 3.8 W 17 19 9 10 1015.6 - 0.0
18/01:30pm 10.2 5.6 1.3 54 3.9 WSW 15 19 8 10 1015.7 - 0.0
18/01:20pm 9.9 5.3 1.6 56 3.6 WSW 15 19 8 10 1015.9 - 0.0
18/01:10pm 10.6 6.4 1.4 53 4.0 WSW 13 19 7 10 1016.0 - 0.0
18/01:00pm 10.4 6.9 1.5 54 3.9 WSW 9 15 5 8 1016.1 - 0.0
18/12:50pm 9.8 6.0 1.5 56 3.6 SW 11 13 6 7 1016.3 - 0.0
18/12:40pm 9.8 5.5 1.3 55 3.7 SW 13 15 7 8 1016.6 - 0.0
18/12:30pm 9.8 6.0 1.7 57 3.5 WSW 11 15 6 8 1016.7 - 0.0
18/12:10pm 9.9 6.8 1.4 55 3.7 SW 7 11 4 6 1017.3 - 0.0
18/12:00pm 9.5 6.4 1.4 57 3.5 SSW 7 15 4 8 1017.5 - 0.0
18/11:50am 9.5 5.6 1.2 56 3.6 SSW 11 13 6 7 1017.7 - 0.0
18/11:40am 9.2 5.7 1.1 57 3.5 SSW 9 13 5 7 1017.8 - 0.0
18/11:30am 9.0 5.0 0.7 56 3.5 SSW 11 15 6 8 1018.0 - 0.0
18/11:20am 8.8 4.8 0.6 56 3.5 SW 11 15 6 8 1018.1 - 0.0
18/11:10am 8.6 4.7 1.4 60 3.1 SW 11 15 6 8 1018.2 - 0.0
18/11:00am 8.4 4.5 1.1 60 3.1 WSW 11 13 6 7 1018.4 - 0.0
18/10:50am 8.3 5.8 1.5 62 2.9 W 4 13 2 7 1018.6 - 0.0
18/10:40am 7.7 4.6 1.3 64 2.7 WSW 7 11 4 6 1018.7 - 0.0
18/10:30am 7.4 4.3 1.5 66 2.5 W 7 9 4 5 1018.8 - 0.0
18/10:20am 7.2 4.3 1.5 67 2.4 W 6 7 3 4 1018.8 - 0.0
18/10:10am 7.1 4.2 1.5 67 2.4 SW 6 7 3 4 1018.7 - 0.0
18/10:00am 7.0 4.6 1.9 70 2.2 WSW 4 6 2 3 1018.8 - 0.0
18/09:50am 6.8 4.3 1.6 69 2.2 W 4 6 2 3 1018.6 - 0.0
18/09:40am 6.6 4.6 2.3 74 1.8 WNW 2 4 1 2 1018.7 - 0.0
18/09:30am 5.8 3.8 2.1 77 1.6 WNW 2 2 1 1 1018.7 - 0.0
18/09:20am 5.3 3.3 2.3 81 1.3 NNW 2 2 1 1 1018.6 - 0.0
18/09:10am 4.7 3.1 2.7 87 0.9 CALM 0 2 0 1 1018.5 - 0.0
18/09:00am 3.6 1.5 2.0 89 0.7 NE 2 2 1 1 1018.5 - 0.2
18/08:50am 2.7 0.6 1.4 91 0.5 NNE 2 4 1 2 1018.6 - 0.2
18/08:40am 1.9 0.0 0.8 92 0.4 CALM 0 2 0 1 1018.5 - 0.2
18/08:30am 0.9 -1.1 -0.2 92 0.4 CALM 0 0 0 0 1018.6 - 0.2
18/08:20am 0.5 -1.6 -0.5 93 0.4 CALM 0 2 0 1 1018.6 - 0.2
18/08:10am -0.2 -2.7 -1.0 94 0.3 E 2 6 1 3 1018.7 - 0.0
18/08:00am -1.4 -4.4 -2.1 95 0.2 NE 4 6 2 3 1018.7 - 0.0
18/07:50am -2.6 -5.4 -3.4 94 0.2 E 2 4 1 2 1018.7 - 0.0
18/07:40am -3.2 -6.5 -4.0 94 0.1 E 4 6 2 3 1018.7 - 0.0
18/07:30am -2.6 -5.8 -3.1 96 0.1 ENE 4 6 2 3 1018.7 - 0.0
18/07:20am -2.5 -6.0 -3.1 96 0.1 NE 6 6 3 3 1018.7 - 0.0
18/07:10am -2.4 -5.2 -3.0 96 0.1 ENE 2 4 1 2 1018.9 - 0.0
18/07:00am -3.1 -6.3 -3.8 95 0.1 NE 4 6 2 3 1018.9 - 0.0
18/06:50am -2.6 -6.2 -3.3 95 0.1 NE 6 6 3 3 1018.8 - 0.0
18/06:40am -2.0 -5.7 -2.5 96 0.1 ENE 7 7 4 4 1018.7 - 0.0
18/06:30am -2.5 -6.2 -3.1 96 0.1 NE 7 7 4 4 1018.7 - 0.0
18/06:20am -2.1 -5.8 -2.6 96 0.1 NE 7 9 4 5 1018.6 - 0.0
18/06:10am -1.7 -5.1 -2.2 96 0.1 ENE 6 7 3 4 1018.6 - 0.0
18/06:00am -2.1 -5.8 -2.7 96 0.1 NE 7 7 4 4 1018.6 - 0.0
18/05:50am -1.9 -5.5 -2.4 96 0.1 NE 7 7 4 4 1018.5 - 0.0
18/05:40am -1.5 -4.9 -2.0 96 0.1 NE 6 7 3 4 1018.4 - 0.0
18/05:30am -1.8 -5.2 -2.3 96 0.1 NE 6 7 3 4 1018.4 - 0.0
18/05:20am -1.8 -5.4 -2.2 97 0.1 NE 7 9 4 5 1018.3 - 0.0
18/05:10am -2.1 -6.1 -2.6 96 0.1 NE 9 11 5 6 1018.4 - 0.0
18/05:00am -1.5 -4.9 -2.0 96 0.1 NE 6 7 3 4 1018.4 - 0.0
18/04:50am -1.8 -5.2 -2.3 96 0.1 NE 6 6 3 3 1018.3 - 0.0
18/04:40am -1.6 -5.0 -2.0 97 0.1 NE 6 7 3 4 1018.4 - 0.0
18/04:30am -2.2 -5.7 -2.7 96 0.1 NE 6 7 3 4 1018.3 - 0.0
18/04:20am -2.1 -5.6 -2.7 96 0.1 NE 6 7 3 4 1018.2 - 0.0
18/04:10am -2.5 -6.0 -3.1 96 0.1 NE 6 7 3 4 1018.2 - 0.0
18/04:00am -2.3 -5.8 -2.9 96 0.1 NE 6 7 3 4 1018.2 - 0.0
18/03:40am -1.1 -3.7 -1.6 96 0.1 ENE 2 4 1 2 1018.3 - 0.0
18/03:30am -1.4 -4.4 -1.8 97 0.1 ENE 4 6 2 3 1018.4 - 0.0
18/03:20am -1.9 -5.0 -2.6 95 0.2 NE 4 6 2 3 1018.5 - 0.0
18/03:10am -1.4 -4.8 -1.9 96 0.1 ENE 6 6 3 3 1018.6 - 0.0
18/03:00am -2.0 -5.1 -2.6 96 0.1 NE 4 6 2 3 1018.6 - 0.0
18/02:50am -1.2 -3.8 -1.7 96 0.1 - 2 4 1 2 1018.6 - 0.0
18/02:40am -2.2 -4.9 -2.8 96 0.1 ENE 2 4 1 2 1018.7 - 0.0
18/02:30am -1.2 -3.4 -1.9 95 0.2 CALM 0 2 0 1 1018.7 - 0.0
18/02:20am 0.0 -2.1 -0.5 96 0.2 CALM 0 2 0 1 1018.6 - 0.0
18/02:10am -0.6 -2.7 -1.1 96 0.2 CALM 0 2 0 1 1018.6 - 0.0
18/02:00am -1.8 -4.9 -2.5 95 0.2 NE 4 6 2 3 1018.6 - 0.0
18/01:50am -0.5 -3.0 -1.0 96 0.2 S 2 4 1 2 1018.5 - 0.0
18/01:40am -0.1 -2.2 -0.6 96 0.2 CALM 0 2 0 1 1018.5 - 0.0
18/01:30am -0.2 -3.0 -0.7 96 0.2 NE 4 6 2 3 1018.6 - 0.0
18/01:20am -0.2 -3.0 -0.7 96 0.2 NE 4 6 2 3 1018.6 - 0.0
18/01:10am -0.3 -3.5 -0.8 96 0.2 ENE 6 7 3 4 1018.7 - 0.0
18/01:00am -1.0 -4.5 -1.5 96 0.1 NE 7 9 4 5 1018.8 - 0.0
18/12:50am -1.1 -4.4 -1.6 96 0.1 NE 6 7 3 4 1018.8 - 0.0
18/12:40am -1.3 -4.3 -1.8 96 0.1 ENE 4 4 2 2 1018.7 - 0.0
18/12:30am -0.2 -3.0 -0.6 97 0.1 ENE 4 4 2 2 1018.7 - 0.0
18/12:20am -0.7 -4.0 -1.2 96 0.1 NE 6 7 3 4 1018.8 - 0.0
18/12:10am -1.4 -4.8 -2.0 96 0.1 NE 6 7 3 4 1018.8 - 0.0
18/12:00am -1.5 -4.5 -2.1 96 0.1 NE 4 6 2 3 1019.0 - 0.0
 
Date/Time
EST
Temp
°C
App
Temp
°C
Dew
Point
°C
Rel
Hum
%
Delta-T
°C
Wind Press
QNH
hPa
Press
MSL
hPa
Rain since
9am
mm
Dir  Spd
km/h
Gust
km/h
Spd
kts
Gust
kts
17/11:50pm -0.8 -3.4 -1.4 96 0.2 ENE 2 6 1 3 1019.0 - 0.0
17/11:40pm -0.3 -3.2 -0.8 96 0.2 ENE 4 6 2 3 1019.0 - 0.0
17/11:30pm -0.7 -4.0 -1.3 96 0.2 NE 6 6 3 3 1019.1 - 0.0
17/11:20pm -0.1 -3.3 -0.6 96 0.2 NE 6 7 3 4 1019.1 - 0.0
17/11:10pm -1.2 -4.8 -2.1 94 0.3 NE 7 7 4 4 1019.1 - 0.0
17/11:00pm 0.5 -1.9 -0.1 96 0.2 NE 2 6 1 3 1019.1 - 0.0
17/10:50pm 0.4 -2.9 -0.2 96 0.2 ENE 7 9 4 5 1019.1 - 0.0
17/10:40pm -0.4 -3.3 -1.3 94 0.3 NE 4 9 2 5 1019.2 - 0.0
17/10:20pm 0.6 -2.7 0.0 96 0.2 NE 7 9 4 5 1019.2 - 0.0
17/10:10pm -0.2 -3.7 -1.0 94 0.3 NE 7 9 4 5 1019.2 - 0.0
17/10:00pm 0.8 -1.6 -0.5 91 0.5 ENE 2 6 1 3 1019.2 - 0.0
17/09:50pm 1.6 -1.0 0.9 95 0.3 ENE 4 6 2 3 1019.2 - 0.0
17/09:40pm 1.1 -2.0 0.4 95 0.3 NE 6 7 3 4 1019.1 - 0.0
17/09:30pm 0.4 -2.5 -1.0 90 0.5 ENE 4 6 2 3 1019.1 - 0.0
17/09:20pm 2.0 -0.2 1.1 94 0.4 E 2 4 1 2 1019.0 - 0.0
17/09:10pm 1.6 -0.7 0.7 94 0.4 NE 2 4 1 2 1019.0 - 0.0
17/09:00pm 1.5 -0.4 0.4 92 0.4 CALM 0 0 0 0 1019.0 - 0.0
17/08:50pm 3.1 1.3 1.1 87 0.8 CALM 0 0 0 0 1019.0 - 0.0
17/08:40pm 3.2 1.4 1.3 87 0.8 CALM 0 0 0 0 1019.0 - 0.0
17/08:30pm 3.1 1.3 1.3 88 0.7 CALM 0 4 0 2 1018.9 - 0.0
17/08:20pm 4.1 1.2 1.5 83 1.1 S 6 9 3 5 1018.9 - 0.0
17/08:10pm 4.6 0.8 1.8 82 1.2 SSW 11 13 6 7 1018.9 - 0.0
17/08:00pm 4.6 1.6 1.8 82 1.2 SSW 7 9 4 5 1018.8 - 0.0
17/07:50pm 4.5 1.5 1.7 82 1.2 SSW 7 7 4 4 1018.9 - 0.0
17/07:40pm 3.7 0.8 1.7 87 0.8 S 6 9 3 5 1018.9 - 0.0
17/07:30pm 3.0 1.1 0.8 85 0.9 CALM 0 4 0 2 1018.9 - 0.0
17/07:20pm 3.9 2.2 1.6 85 0.9 CALM 0 4 0 2 1018.9 - 0.0
17/07:10pm 4.3 2.1 1.2 80 1.3 N 2 4 1 2 1018.8 - 0.0
17/07:00pm 4.9 2.8 1.6 79 1.4 NE 2 4 1 2 1018.8 - 0.0
17/06:50pm 6.3 3.8 1.5 71 2.0 SSW 4 7 2 4 1018.6 - 0.0
17/06:40pm 6.4 3.0 1.7 72 2.0 SSW 9 9 5 5 1018.5 - 0.0
17/06:30pm 6.7 3.3 1.8 71 2.1 SSW 9 11 5 6 1018.5 - 0.0
17/06:20pm 7.2 3.4 1.9 69 2.3 SSW 11 13 6 7 1018.4 - 0.0
17/06:10pm 7.5 3.0 2.0 68 2.4 SSW 15 19 8 10 1018.2 - 0.0
17/06:00pm 7.9 3.7 1.8 65 2.6 S 13 20 7 11 1018.1 - 0.0
17/05:40pm 8.0 4.6 2.0 66 2.6 S 9 11 5 6 1017.9 - 0.0
17/05:30pm 8.3 4.2 2.0 64 2.7 S 13 17 7 9 1017.8 - 0.0
17/05:20pm 8.6 3.7 1.7 62 3.0 S 17 20 9 11 1017.8 - 0.0
17/05:10pm 8.9 3.5 1.5 60 3.2 SSW 19 28 10 15 1017.7 - 0.0
17/05:00pm 8.8 4.9 1.3 59 3.2 SSW 11 19 6 10 1017.5 - 0.0
17/04:50pm 9.1 5.3 1.6 59 3.2 S 11 15 6 8 1017.4 - 0.0
17/04:40pm 9.6 5.0 1.5 57 3.5 S 15 19 8 10 1017.3 - 0.0
17/04:30pm 10.4 6.2 1.6 54 3.9 S 13 15 7 8 1017.3 - 0.0
17/04:20pm 10.7 5.8 1.8 54 3.9 S 17 22 9 12 1017.2 - 0.0
17/04:10pm 10.9 6.7 1.5 52 4.1 S 13 19 7 10 1017.1 - 0.0
17/04:00pm 11.1 5.7 1.2 50 4.3 SSW 19 28 10 15 1016.9 - 0.0
17/03:50pm 11.3 6.0 1.7 51 4.2 SSW 19 22 10 12 1016.9 - 0.0
17/03:40pm 11.3 6.0 1.7 51 4.2 S 19 22 10 12 1016.8 - 0.0
17/03:30pm 11.5 5.6 1.5 50 4.4 SSW 22 32 12 17 1016.7 - 0.0
17/03:20pm 11.6 6.1 1.8 51 4.4 S 20 26 11 14 1016.7 - 0.0
17/03:10pm 11.5 6.0 2.1 52 4.2 S 20 28 11 15 1016.7 - 0.0
17/03:00pm 11.5 4.5 2.2 53 4.2 S 28 33 15 18 1016.8 - 0.0
17/02:50pm 11.8 5.9 2.0 51 4.4 S 22 28 12 15 1016.6 - 0.0
17/02:40pm 11.7 5.2 2.4 53 4.2 S 26 32 14 17 1016.7 - 0.0
17/02:30pm 11.9 5.3 2.3 52 4.3 S 26 32 14 17 1016.6 - 0.0
17/02:20pm 12.4 6.6 2.4 50 4.5 S 22 26 12 14 1016.4 - 0.0
17/02:10pm 12.2 5.7 2.4 51 4.4 SSW 26 30 14 16 1016.5 - 0.0
17/02:00pm 12.4 6.2 2.1 49 4.6 S 24 30 13 16 1016.5 - 0.0
17/01:50pm 11.5 4.1 1.9 51 4.3 SSW 30 37 16 20 1016.4 - 0.0
17/01:40pm 12.2 4.9 2.3 51 4.5 SSW 30 39 16 21 1016.3 - 0.0
17/01:30pm 12.0 5.0 2.1 50 4.4 SSW 28 35 15 19 1016.0 - 0.0
17/01:20pm 11.3 5.1 2.3 54 4.0 S 24 28 13 15 1016.3 - 0.0
17/01:10pm 12.0 5.9 2.8 53 4.2 S 24 33 13 18 1016.3 - 0.0
17/01:00pm 12.1 6.4 2.6 52 4.3 S 22 28 12 15 1016.4 - 0.0
17/12:50pm 12.2 6.0 2.2 50 4.5 SSW 24 30 13 16 1016.5 - 0.0
17/12:40pm 11.8 5.6 2.4 52 4.2 SSW 24 32 13 17 1016.5 - 0.0
17/12:30pm 11.7 6.0 3.1 55 3.9 SSW 22 26 12 14 1016.5 - 0.0
17/12:20pm 11.5 5.9 3.3 57 3.8 SSW 22 28 12 15 1016.6 - 0.0
17/12:10pm 11.1 4.7 3.0 57 3.7 SSW 26 30 14 16 1016.7 - 0.0
17/12:00pm 11.2 5.9 2.8 56 3.8 S 20 28 11 15 1016.7 - 0.0
17/11:50am 11.4 6.3 2.8 55 3.9 S 19 22 10 12 1016.9 - 0.0
17/11:40am 11.0 6.3 3.1 58 3.6 S 17 19 9 10 1017.0 - 0.0
17/11:30am 10.8 5.5 3.1 59 3.5 SSW 20 26 11 14 1017.1 - 0.0
17/11:20am 10.8 5.1 3.0 58 3.5 SSW 22 24 12 13 1017.0 - 0.0
17/11:10am 10.4 4.3 2.9 59 3.4 SSW 24 28 13 15 1017.1 - 0.0
17/11:00am 10.5 4.1 3.1 60 3.4 SSW 26 30 14 16 1017.1 - 0.0
17/10:50am 10.8 5.1 3.1 59 3.5 S 22 26 12 14 1017.3 - 0.0
17/10:30am 9.6 3.2 3.1 64 2.9 SSW 26 32 14 17 1017.4 - 0.0
17/10:20am 9.5 2.7 3.0 64 2.9 SSW 28 32 15 17 1017.3 - 0.0
17/10:10am 9.4 3.7 3.1 65 2.8 S 22 28 12 15 1017.5 - 0.0
17/10:00am 9.2 3.1 2.8 64 2.8 SSW 24 30 13 16 1017.6 - 0.0
17/09:50am 9.4 4.1 3.1 65 2.8 SSW 20 24 11 13 1017.5 - 0.0
17/09:40am 9.1 4.4 3.4 67 2.6 SSW 17 26 9 14 1017.5 - 0.0
17/09:30am 8.9 4.2 3.2 67 2.6 SSW 17 19 9 10 1017.4 - 0.0
17/09:20am 8.2 3.9 3.0 70 2.3 SW 15 17 8 9 1017.4 - 0.0
17/09:10am 7.6 3.9 2.5 70 2.2 WSW 11 15 6 8 1017.4 - 0.0
17/09:00am 7.2 3.9 2.6 72 2.0 SW 9 15 5 8 1017.4 - 0.2
17/08:50am 6.9 2.8 2.1 71 2.1 SW 13 17 7 9 1017.5 - 0.2
17/08:40am 6.9 2.4 2.2 72 2.0 SW 15 17 8 9 1017.4 - 0.2
17/08:30am 7.0 2.9 2.1 71 2.1 WSW 13 17 7 9 1017.3 - 0.2
17/08:20am 6.9 2.0 2.2 72 2.0 WSW 17 19 9 10 1017.2 - 0.2
17/08:10am 6.9 2.4 2.1 71 2.1 WSW 15 22 8 12 1017.2 - 0.2
17/08:00am 6.7 2.9 1.9 71 2.0 WSW 11 13 6 7 1017.0 - 0.2
17/07:50am 5.8 2.4 1.8 75 1.7 SW 9 11 5 6 1017.0 - 0.2
17/07:40am 3.9 0.4 1.3 83 1.1 SSW 9 11 5 6 1016.9 - 0.2
17/07:30am 3.2 -0.7 1.0 85 0.9 SSW 11 13 6 7 1016.9 - 0.2
17/07:20am 2.9 -1.1 0.8 86 0.8 SSW 11 13 6 7 1016.8 - 0.2
17/07:10am 3.0 -1.3 0.8 85 0.9 SSW 13 13 7 7 1016.8 - 0.2
17/07:00am 3.7 -0.6 1.0 82 1.1 SW 13 17 7 9 1016.7 - 0.2
17/06:50am 3.8 -0.5 1.2 83 1.1 SW 13 15 7 8 1016.6 - 0.2
17/06:40am 3.5 -0.4 1.1 84 1.0 SW 11 13 6 7 1016.5 - 0.2
17/06:30am 3.6 -0.7 1.1 84 1.0 SSW 13 15 7 8 1016.2 - 0.2
17/06:20am 4.5 -0.5 1.3 80 1.3 SW 17 20 9 11 1016.2 - 0.2
17/06:10am 4.4 -0.2 1.4 81 1.2 SW 15 17 8 9 1016.1 - 0.2
17/06:00am 4.1 -0.6 1.1 81 1.2 WSW 15 17 8 9 1016.1 - 0.2
17/05:50am 3.2 -1.1 0.7 84 1.0 SW 13 15 7 8 1016.0 - 0.2
17/05:40am 3.4 -0.5 0.9 84 1.0 SSW 11 15 6 8 1015.9 - 0.2
17/05:30am 3.6 -1.1 1.0 83 1.0 SW 15 19 8 10 1015.8 - 0.2
17/05:20am 3.5 -0.8 0.9 83 1.0 SW 13 15 7 8 1015.7 - 0.2
17/05:10am 3.3 -1.0 0.9 84 1.0 SW 13 15 7 8 1015.8 - 0.2
17/05:00am 3.0 -1.7 0.7 85 0.9 SW 15 17 8 9 1015.8 - 0.2
17/04:50am 3.2 -1.1 0.7 84 1.0 SSW 13 13 7 7 1015.7 - 0.2
17/04:40am 3.2 -0.8 0.8 84 1.0 SSW 11 13 6 7 1015.7 - 0.2
17/04:30am 3.1 -0.9 0.7 84 1.0 SSW 11 13 6 7 1015.7 - 0.2
17/04:20am 3.0 -1.7 0.8 85 0.9 SSW 15 17 8 9 1015.6 - 0.2
17/04:10am 3.2 -1.5 0.9 85 0.9 SSW 15 17 8 9 1015.6 - 0.2
17/04:00am 3.6 -1.5 0.9 82 1.1 SW 17 19 9 10 1015.6 - 0.2
17/03:50am 4.6 -0.4 1.2 78 1.4 SW 17 19 9 10 1015.5 - 0.2
17/03:40am 4.2 -0.8 1.1 80 1.3 SW 17 20 9 11 1015.6 - 0.2
17/03:30am 4.1 -1.0 1.0 80 1.3 SSW 17 19 9 10 1015.6 - 0.2
17/03:20am 4.5 -0.5 1.2 79 1.4 SW 17 19 9 10 1015.7 - 0.2
17/03:10am 4.4 -0.6 1.1 79 1.3 SW 17 19 9 10 1015.7 - 0.2
17/03:00am 3.6 -0.7 0.8 82 1.1 SW 13 13 7 7 1015.9 - 0.2
17/02:50am 3.9 -0.1 0.5 78 1.4 SW 11 15 6 8 1015.9 - 0.2

Other formats

Comma delimited format used in spreadsheet applications
http://www.bom.gov.au/fwo/IDN60801/IDN60801.99764.axf

JavaScript Object Notation format (JSON) in row-major order
http://www.bom.gov.au/fwo/IDN60801/IDN60801.99764.json

Data quality

Most of these data are generated automatically and are frequently updated. Quality checks on data are not normally performed. It is possible for incorrect values to appear. Refer to information at About Latest Weather Observations and please check the disclaimer before using these data.